Lamoni, Iowa
Current Conditions -  °F | °C
As of 10:53 PM on Saturday 25 Oct 2014 (Local Time) from KLWD Reporting Station
Clear Clear  
Wind Chill: 55°   Ceiling: Unl
Heat Index: 55°   Visibility: 10mi
Dew Point: 41°   Wind: 6mph
Humidity: 59%   Direction: 40°NE
Pressure: 30.06"   Gusts: NA
Location:  40.62°N, 93.93°W
Report Text: KLWD 260353Z AUTO 04005KT 10SM CLR 13/05 A3006 RMK AO2 SLP178 T01280050
Loading
Personal Weather Stations






























Interactive Weather Map
Tropical Storm Tracking
New forecast layout! Learn more

10-Day Weather Forecast

Advertisements
Track Severe Weather on mobile